GLO1029 SBRJ-SBSP
Flight info
| Callsign | GLO1029 |
|---|---|
| Flight time | 0h 42m |
| Altitude | 30000 |
| Route | NAXOP UZ45 IBDAL |
| Aircraft | B737/M-SDE2E3FGHIRWXY/LB1 |
Departure
| Time | 2026-05-07 18:51 |
|---|---|
| Airport | Santos Dumont Airport (SBRJ) |
Arrival
| Time | 2026-05-07 19:34 |
|---|---|
| Airport | Congonhas–Deputado Freitas Nobre Airport (SBSP) |
| Time | Latitude | Longitude | Altitude | Speed | Heading |
|---|---|---|---|---|---|
| 2026-05-07 18:43 | -22.91098 | -43.16590 | 21 ft | 0 kts | 266° |
| 2026-05-07 18:44 | -22.91096 | -43.16552 | 24 ft | 5 kts | 268° |
| 2026-05-07 18:44 | -22.91096 | -43.16535 | 25 ft | 2 kts | 292° |
| 2026-05-07 18:45 | -22.91103 | -43.16526 | 23 ft | 2 kts | 341° |
| 2026-05-07 18:45 | -22.91110 | -43.16524 | 25 ft | 0 kts | 343° |
| 2026-05-07 18:48 | -22.91098 | -43.16528 | 24 ft | 7 kts | 343° |
| 2026-05-07 18:48 | -22.91044 | -43.16536 | 21 ft | 8 kts | 355° |
| 2026-05-07 18:48 | -22.90988 | -43.16540 | 23 ft | 8 kts | 355° |
| 2026-05-07 18:48 | -22.90927 | -43.16546 | 21 ft | 10 kts | 356° |
| 2026-05-07 18:49 | -22.90845 | -43.16551 | 21 ft | 13 kts | 1° |
| 2026-05-07 18:49 | -22.90746 | -43.16543 | 21 ft | 15 kts | 358° |
| 2026-05-07 18:49 | -22.90646 | -43.16549 | 21 ft | 14 kts | 358° |
| 2026-05-07 18:49 | -22.90552 | -43.16555 | 21 ft | 13 kts | 356° |
| 2026-05-07 18:50 | -22.90497 | -43.16508 | 21 ft | 12 kts | 86° |
| 2026-05-07 18:50 | -22.90493 | -43.16421 | 23 ft | 11 kts | 85° |
| 2026-05-07 18:50 | -22.90470 | -43.16341 | 23 ft | 8 kts | 64° |
| 2026-05-07 18:50 | -22.90483 | -43.16319 | 23 ft | 3 kts | 165° |
| 2026-05-07 18:51 | -22.90491 | -43.16318 | 23 ft | 3 kts | 176° |
| 2026-05-07 18:51 | -22.90843 | -43.16294 | 25 ft | 99 kts | 177° |
| 2026-05-07 18:51 | -22.91778 | -43.16217 | 259 ft | 157 kts | 172° |
| 2026-05-07 18:51 | -22.92811 | -43.15804 | 1120 ft | 165 kts | 134° |
| 2026-05-07 18:52 | -22.93668 | -43.14936 | 2042 ft | 178 kts | 133° |
| 2026-05-07 18:52 | -22.94688 | -43.13926 | 2485 ft | 220 kts | 134° |
| 2026-05-07 18:52 | -22.95888 | -43.12741 | 3065 ft | 241 kts | 135° |
| 2026-05-07 18:52 | -22.97170 | -43.11505 | 4028 ft | 250 kts | 135° |
| 2026-05-07 18:53 | -22.98564 | -43.10340 | 5150 ft | 257 kts | 154° |
| 2026-05-07 18:53 | -23.00317 | -43.10007 | 6250 ft | 262 kts | 187° |
| 2026-05-07 18:53 | -23.02062 | -43.10747 | 6858 ft | 284 kts | 219° |
| 2026-05-07 18:53 | -23.03581 | -43.12133 | 7587 ft | 294 kts | 223° |
| 2026-05-07 18:54 | -23.05133 | -43.13588 | 7915 ft | 295 kts | 222° |
| 2026-05-07 18:54 | -23.06718 | -43.15049 | 7952 ft | 302 kts | 222° |
| 2026-05-07 18:54 | -23.08353 | -43.16516 | 8567 ft | 306 kts | 220° |
| 2026-05-07 18:54 | -23.10001 | -43.17951 | 9861 ft | 303 kts | 220° |
| 2026-05-07 18:55 | -23.11653 | -43.19383 | 10896 ft | 305 kts | 219° |
| 2026-05-07 18:55 | -23.13323 | -43.20832 | 11861 ft | 310 kts | 219° |
| 2026-05-07 18:55 | -23.15021 | -43.22307 | 12792 ft | 316 kts | 219° |
| 2026-05-07 18:55 | -23.16768 | -43.23828 | 13648 ft | 323 kts | 219° |
| 2026-05-07 18:56 | -23.18526 | -43.25359 | 14594 ft | 325 kts | 218° |
| 2026-05-07 18:56 | -23.20286 | -43.26894 | 15585 ft | 324 kts | 218° |
| 2026-05-07 18:56 | -23.22053 | -43.28437 | 16505 ft | 328 kts | 218° |
| 2026-05-07 18:56 | -23.23845 | -43.30002 | 17362 ft | 332 kts | 218° |
| 2026-05-07 18:57 | -23.25650 | -43.31581 | 18287 ft | 334 kts | 218° |
| 2026-05-07 18:57 | -23.27468 | -43.33172 | 19132 ft | 335 kts | 218° |
| 2026-05-07 18:57 | -23.29275 | -43.34751 | 20042 ft | 334 kts | 218° |
| 2026-05-07 18:57 | -23.31094 | -43.36339 | 20879 ft | 334 kts | 218° |
| 2026-05-07 18:58 | -23.32814 | -43.38011 | 21867 ft | 332 kts | 230° |
| 2026-05-07 18:58 | -23.33967 | -43.40131 | 22812 ft | 331 kts | 246° |
| 2026-05-07 18:58 | -23.34695 | -43.42555 | 23411 ft | 342 kts | 252° |
| 2026-05-07 18:58 | -23.35285 | -43.45072 | 24072 ft | 346 kts | 255° |
| 2026-05-07 18:59 | -23.35848 | -43.47638 | 24673 ft | 351 kts | 255° |
| 2026-05-07 18:59 | -23.36415 | -43.50229 | 25337 ft | 353 kts | 254° |
| 2026-05-07 18:59 | -23.36995 | -43.52832 | 26042 ft | 354 kts | 253° |
| 2026-05-07 18:59 | -23.37586 | -43.55439 | 26738 ft | 356 kts | 253° |
| 2026-05-07 19:00 | -23.38189 | -43.58063 | 27392 ft | 358 kts | 253° |
| 2026-05-07 19:00 | -23.38802 | -43.60704 | 28051 ft | 361 kts | 253° |
| 2026-05-07 19:00 | -23.39421 | -43.63363 | 28701 ft | 363 kts | 252° |
| 2026-05-07 19:00 | -23.40043 | -43.66034 | 29350 ft | 365 kts | 252° |
| 2026-05-07 19:01 | -23.40670 | -43.68725 | 29914 ft | 370 kts | 252° |
| 2026-05-07 19:01 | -23.41910 | -43.74064 | 29947 ft | 357 kts | 252° |
| 2026-05-07 19:02 | -23.43120 | -43.79278 | 29955 ft | 354 kts | 252° |
| 2026-05-07 19:02 | -23.44318 | -43.84447 | 29945 ft | 354 kts | 253° |
| 2026-05-07 19:03 | -23.45520 | -43.89637 | 29945 ft | 353 kts | 253° |
| 2026-05-07 19:03 | -23.46721 | -43.94829 | 29941 ft | 354 kts | 253° |
| 2026-05-07 19:04 | -23.47922 | -44.00034 | 29940 ft | 354 kts | 253° |
| 2026-05-07 19:04 | -23.49111 | -44.05217 | 29934 ft | 355 kts | 253° |
| 2026-05-07 19:05 | -23.50306 | -44.10442 | 29939 ft | 356 kts | 253° |
| 2026-05-07 19:05 | -23.51505 | -44.15675 | 29938 ft | 356 kts | 253° |
| 2026-05-07 19:06 | -23.52714 | -44.20926 | 29940 ft | 357 kts | 253° |
| 2026-05-07 19:06 | -23.54530 | -44.28808 | 29943 ft | 358 kts | 253° |
| 2026-05-07 19:07 | -23.55738 | -44.34081 | 29935 ft | 359 kts | 253° |
| 2026-05-07 19:07 | -23.56945 | -44.39367 | 29930 ft | 360 kts | 253° |
| 2026-05-07 19:08 | -23.58146 | -44.44633 | 29926 ft | 360 kts | 253° |
| 2026-05-07 19:08 | -23.59355 | -44.49943 | 29938 ft | 361 kts | 253° |
| 2026-05-07 19:09 | -23.60564 | -44.55261 | 29931 ft | 362 kts | 253° |
| 2026-05-07 19:09 | -23.61772 | -44.60582 | 29932 ft | 361 kts | 253° |
| 2026-05-07 19:10 | -23.62976 | -44.65902 | 29931 ft | 361 kts | 254° |
| 2026-05-07 19:10 | -23.64177 | -44.71215 | 29937 ft | 361 kts | 254° |
| 2026-05-07 19:11 | -23.65378 | -44.76538 | 29934 ft | 361 kts | 254° |
| 2026-05-07 19:11 | -23.66581 | -44.81875 | 29523 ft | 364 kts | 255° |
| 2026-05-07 19:12 | -23.67182 | -44.84552 | 29038 ft | 364 kts | 255° |
| 2026-05-07 19:12 | -23.67782 | -44.87223 | 28538 ft | 362 kts | 255° |
| 2026-05-07 19:12 | -23.68380 | -44.89888 | 27959 ft | 362 kts | 255° |
| 2026-05-07 19:12 | -23.68969 | -44.92514 | 27528 ft | 359 kts | 256° |
| 2026-05-07 19:13 | -23.69559 | -44.95145 | 27076 ft | 356 kts | 256° |
| 2026-05-07 19:13 | -23.70144 | -44.97762 | 26625 ft | 353 kts | 256° |
| 2026-05-07 19:13 | -23.70725 | -45.00356 | 26186 ft | 351 kts | 256° |
| 2026-05-07 19:13 | -23.71302 | -45.02938 | 25745 ft | 349 kts | 256° |
| 2026-05-07 19:14 | -23.71874 | -45.05503 | 25312 ft | 347 kts | 256° |
| 2026-05-07 19:14 | -23.72444 | -45.08059 | 24857 ft | 346 kts | 256° |
| 2026-05-07 19:14 | -23.73011 | -45.10607 | 24409 ft | 345 kts | 256° |
| 2026-05-07 19:14 | -23.73577 | -45.13150 | 23967 ft | 344 kts | 256° |
| 2026-05-07 19:15 | -23.74139 | -45.15686 | 23519 ft | 343 kts | 256° |
| 2026-05-07 19:15 | -23.74701 | -45.18212 | 23006 ft | 341 kts | 256° |
| 2026-05-07 19:15 | -23.75255 | -45.20722 | 22554 ft | 338 kts | 258° |
| 2026-05-07 19:15 | -23.75592 | -45.23236 | 22306 ft | 332 kts | 263° |
| 2026-05-07 19:16 | -23.75812 | -45.25738 | 22052 ft | 330 kts | 264° |
| 2026-05-07 19:16 | -23.76006 | -45.28234 | 21802 ft | 331 kts | 265° |
| 2026-05-07 19:16 | -23.76198 | -45.30759 | 21569 ft | 335 kts | 265° |
| 2026-05-07 19:16 | -23.76397 | -45.33312 | 21329 ft | 340 kts | 265° |
| 2026-05-07 19:17 | -23.76599 | -45.35851 | 21082 ft | 340 kts | 265° |
| 2026-05-07 19:17 | -23.76740 | -45.37581 | 20913 ft | 339 kts | 265° |
| 2026-05-07 19:17 | -23.77019 | -45.40977 | 20600 ft | 338 kts | 265° |
| 2026-05-07 19:17 | -23.77231 | -45.43533 | 20362 ft | 338 kts | 265° |
| 2026-05-07 19:18 | -23.77443 | -45.46086 | 20131 ft | 338 kts | 265° |
| 2026-05-07 19:18 | -23.77657 | -45.48641 | 19893 ft | 338 kts | 265° |
| 2026-05-07 19:18 | -23.77800 | -45.50366 | 19734 ft | 340 kts | 265° |
| 2026-05-07 19:18 | -23.78098 | -45.53961 | 19482 ft | 378 kts | 265° |
| 2026-05-07 19:19 | -23.78258 | -45.55894 | 19332 ft | 388 kts | 265° |
| 2026-05-07 19:19 | -23.78501 | -45.58839 | 19097 ft | 391 kts | 265° |
| 2026-05-07 19:19 | -23.78745 | -45.61803 | 18863 ft | 392 kts | 266° |
| 2026-05-07 19:19 | -23.78990 | -45.64765 | 18628 ft | 391 kts | 266° |
| 2026-05-07 19:20 | -23.79235 | -45.67727 | 18391 ft | 391 kts | 266° |
| 2026-05-07 19:20 | -23.79479 | -45.70684 | 18169 ft | 391 kts | 266° |
| 2026-05-07 19:20 | -23.79722 | -45.73646 | 17916 ft | 391 kts | 266° |
| 2026-05-07 19:20 | -23.79965 | -45.76610 | 17659 ft | 391 kts | 266° |
| 2026-05-07 19:21 | -23.80206 | -45.79560 | 17398 ft | 390 kts | 266° |
| 2026-05-07 19:21 | -23.80446 | -45.82504 | 17147 ft | 389 kts | 266° |
| 2026-05-07 19:21 | -23.80685 | -45.85443 | 16893 ft | 388 kts | 266° |
| 2026-05-07 19:21 | -23.80920 | -45.88334 | 16641 ft | 386 kts | 266° |
| 2026-05-07 19:22 | -23.81156 | -45.91250 | 16408 ft | 385 kts | 266° |
| 2026-05-07 19:22 | -23.81392 | -45.94170 | 15823 ft | 386 kts | 266° |
| 2026-05-07 19:22 | -23.81626 | -45.97075 | 15229 ft | 381 kts | 266° |
| 2026-05-07 19:22 | -23.81856 | -45.99942 | 14615 ft | 378 kts | 266° |
| 2026-05-07 19:23 | -23.82085 | -46.02793 | 13969 ft | 376 kts | 266° |
| 2026-05-07 19:23 | -23.82312 | -46.05638 | 13278 ft | 375 kts | 267° |
| 2026-05-07 19:23 | -23.82538 | -46.08467 | 12619 ft | 372 kts | 267° |
| 2026-05-07 19:23 | -23.82761 | -46.11269 | 11981 ft | 368 kts | 267° |
| 2026-05-07 19:24 | -23.82981 | -46.14040 | 11353 ft | 364 kts | 267° |
| 2026-05-07 19:24 | -23.83197 | -46.16777 | 10739 ft | 357 kts | 268° |
| 2026-05-07 19:24 | -23.83407 | -46.19393 | 10445 ft | 332 kts | 268° |
| 2026-05-07 19:24 | -23.83603 | -46.21812 | 10273 ft | 308 kts | 269° |
| 2026-05-07 19:25 | -23.83779 | -46.24030 | 10150 ft | 288 kts | 268° |
| 2026-05-07 19:25 | -23.83948 | -46.26145 | 10018 ft | 271 kts | 268° |
| 2026-05-07 19:25 | -23.84106 | -46.28158 | 9863 ft | 261 kts | 268° |
| 2026-05-07 19:25 | -23.84259 | -46.30136 | 9540 ft | 261 kts | 269° |
| 2026-05-07 19:26 | -23.84411 | -46.32151 | 9172 ft | 271 kts | 269° |
| 2026-05-07 19:26 | -23.84566 | -46.34216 | 8786 ft | 272 kts | 268° |
| 2026-05-07 19:26 | -23.84724 | -46.36259 | 8464 ft | 267 kts | 269° |
| 2026-05-07 19:26 | -23.84881 | -46.38270 | 8134 ft | 266 kts | 268° |
| 2026-05-07 19:27 | -23.85039 | -46.40292 | 7733 ft | 268 kts | 268° |
| 2026-05-07 19:27 | -23.85195 | -46.42289 | 7383 ft | 267 kts | 269° |
| 2026-05-07 19:27 | -23.85308 | -46.44339 | 7027 ft | 267 kts | 277° |
| 2026-05-07 19:27 | -23.84777 | -46.46208 | 6700 ft | 256 kts | 302° |
| 2026-05-07 19:28 | -23.83803 | -46.47778 | 6550 ft | 246 kts | 309° |
| 2026-05-07 19:28 | -23.82793 | -46.49219 | 6456 ft | 233 kts | 310° |
| 2026-05-07 19:28 | -23.81825 | -46.50601 | 6348 ft | 224 kts | 309° |
| 2026-05-07 19:28 | -23.80905 | -46.51929 | 6246 ft | 215 kts | 309° |
| 2026-05-07 19:29 | -23.80031 | -46.53203 | 6158 ft | 204 kts | 309° |
| 2026-05-07 19:29 | -23.79019 | -46.54242 | 6051 ft | 200 kts | 328° |
| 2026-05-07 19:29 | -23.77831 | -46.55080 | 5799 ft | 202 kts | 327° |
| 2026-05-07 19:29 | -23.76679 | -46.55905 | 5541 ft | 194 kts | 328° |
| 2026-05-07 19:30 | -23.75584 | -46.56671 | 5298 ft | 180 kts | 328° |
| 2026-05-07 19:30 | -23.74576 | -46.57372 | 5093 ft | 164 kts | 328° |
| 2026-05-07 19:30 | -23.73672 | -46.58001 | 4932 ft | 143 kts | 328° |
| 2026-05-07 19:30 | -23.72894 | -46.58544 | 4721 ft | 126 kts | 328° |
| 2026-05-07 19:31 | -23.72173 | -46.59044 | 4588 ft | 123 kts | 328° |
| 2026-05-07 19:31 | -23.71441 | -46.59552 | 4428 ft | 126 kts | 328° |
| 2026-05-07 19:31 | -23.70700 | -46.60065 | 4256 ft | 126 kts | 329° |
| 2026-05-07 19:31 | -23.69965 | -46.60575 | 4111 ft | 126 kts | 328° |
| 2026-05-07 19:32 | -23.69217 | -46.61095 | 3939 ft | 128 kts | 327° |
| 2026-05-07 19:32 | -23.68474 | -46.61611 | 3790 ft | 126 kts | 327° |
| 2026-05-07 19:32 | -23.67733 | -46.62125 | 3626 ft | 126 kts | 328° |
| 2026-05-07 19:32 | -23.66991 | -46.62640 | 3458 ft | 127 kts | 327° |
| 2026-05-07 19:33 | -23.66259 | -46.63161 | 3290 ft | 127 kts | 325° |
| 2026-05-07 19:33 | -23.65513 | -46.63674 | 3121 ft | 127 kts | 326° |
| 2026-05-07 19:33 | -23.64783 | -46.64205 | 2984 ft | 125 kts | 326° |
| 2026-05-07 19:33 | -23.64038 | -46.64702 | 2796 ft | 126 kts | 327° |
| 2026-05-07 19:34 | -23.63303 | -46.65209 | 2620 ft | 121 kts | 327° |
| 2026-05-07 19:34 | -23.62744 | -46.65594 | 2606 ft | 49 kts | 326° |
| 2026-05-07 19:34 | -23.62514 | -46.65748 | 2603 ft | 40 kts | 327° |
| 2026-05-07 19:34 | -23.62276 | -46.65919 | 2599 ft | 32 kts | 329° |
| 2026-05-07 19:35 | -23.62213 | -46.66011 | 2598 ft | 12 kts | 238° |